Time;durP1;ratioP1;P1;durP2;ratioP2;P2;SDS_P1;SDS_P2;PMS_P1;PMS_P2;Temp;Humidity;BMP_temperature;BMP_pressure;BME280_temperature;BME280_humidity;BME280_pressure;Samples;Min_cycle;Max_cycle;Signal;HPM_P1;HPM_P2
2023/07/11 00:01:00;;;;;;;5.50;2.60;;;;;;;19.49;78.07;101461.00;5072098;28;20078;-86
2023/07/11 00:03:26;;;;;;;6.50;2.60;;;;;;;19.40;77.21;101460.66;5073538;28;20024;-86
2023/07/11 00:06:07;;;;;;;5.65;2.78;;;;;;;19.36;75.51;101459.50;5072104;28;20021;-86
2023/07/11 00:08:33;;;;;;;6.97;3.15;;;;;;;19.27;76.25;101466.56;5072413;28;20039;-86
2023/07/11 00:10:59;;;;;;;3.80;2.63;;;;;;;19.24;76.64;101454.16;5071397;28;20052;-86
2023/07/11 00:13:24;;;;;;;5.78;3.28;;;;;;;19.17;77.01;101449.94;5055519;28;20436;-86
2023/07/11 00:16:02;;;;;;;8.87;3.00;;;;;;;19.10;76.93;101452.88;5055415;28;20029;-87
2023/07/11 00:18:28;;;;;;;7.35;3.30;;;;;;;19.01;77.42;101443.44;5071990;28;20064;-86
2023/07/11 00:20:54;;;;;;;9.48;3.28;;;;;;;18.99;78.57;101449.19;5072110;28;20025;-86
2023/07/11 00:23:19;;;;;;;6.40;2.70;;;;;;;18.97;79.47;101443.13;5055494;28;20025;-86
2023/07/11 00:25:45;;;;;;;5.97;3.37;;;;;;;18.95;81.05;101445.28;5071968;28;20032;-86
2023/07/11 00:28:13;;;;;;;9.65;3.00;;;;;;;18.89;80.05;101449.06;5075922;28;20123;-86
2023/07/11 00:30:41;;;;;;;10.20;3.10;;;;;;;18.84;80.74;101437.97;5075997;28;20032;-87
2023/07/11 00:33:08;;;;;;;6.10;3.08;;;;;;;18.81;80.96;101444.84;5076065;28;20480;-86
2023/07/11 00:35:34;;;;;;;5.45;2.83;;;;;;;18.74;80.01;101435.94;5077377;28;20538;-86
2023/07/11 00:37:59;;;;;;;6.40;3.00;;;;;;;18.73;81.05;101437.03;5076232;28;20115;-87
2023/07/11 00:40:25;;;;;;;7.83;3.30;;;;;;;18.71;83.54;101433.72;5075406;28;20028;-87
2023/07/11 00:42:53;;;;;;;8.67;3.07;;;;;;;18.69;84.50;101442.22;5077082;28;20468;-87
2023/07/11 00:45:56;;;;;;;5.97;2.70;;;;;;;18.69;85.05;101435.88;5075886;28;20267;-87
2023/07/11 00:48:24;;;;;;;6.35;2.95;;;;;;;18.65;85.92;101434.75;5075843;28;20031;-87
2023/07/11 00:50:52;;;;;;;8.48;3.05;;;;;;;18.61;87.42;101431.66;5075748;28;20516;-87
2023/07/11 00:53:18;;;;;;;4.97;2.90;;;;;;;18.60;86.37;101432.72;5077170;28;20029;-87
2023/07/11 00:55:44;;;;;;;5.87;2.93;;;;;;;18.55;84.85;101446.41;5075598;28;20032;-87
2023/07/11 00:58:11;;;;;;;4.78;2.88;;;;;;;18.51;84.10;101439.78;5058745;28;20046;-87
2023/07/11 01:00:36;;;;;;;6.07;2.80;;;;;;;18.44;85.57;101441.88;5075690;28;20029;-86
2023/07/11 01:03:02;;;;;;;5.93;2.80;;;;;;;18.44;85.20;101439.97;5058892;28;20046;-86
2023/07/11 01:05:27;;;;;;;6.20;3.30;;;;;;;18.40;85.03;101447.03;5058778;28;20392;-87
2023/07/11 01:07:56;;;;;;;8.20;2.90;;;;;;;18.37;84.13;101450.31;5075114;28;20020;-87
2023/07/11 01:10:23;;;;;;;7.05;3.42;;;;;;;18.32;84.18;101447.47;5074482;28;20086;-87
2023/07/11 01:12:49;;;;;;;8.32;3.38;;;;;;;18.30;84.71;101450.47;5076287;28;20044;-86
2023/07/11 01:15:16;;;;;;;6.00;3.13;;;;;;;18.26;85.55;101440.25;5075054;28;20491;-86
2023/07/11 01:17:41;;;;;;;7.90;3.30;;;;;;;18.23;85.32;101442.44;5058448;28;20028;-86
2023/07/11 01:20:09;;;;;;;7.90;3.20;;;;;;;18.18;88.47;101442.34;5075070;28;20043;-86
2023/07/11 01:22:37;;;;;;;8.15;2.97;;;;;;;18.17;89.97;101440.69;5075300;28;20040;-86
2023/07/11 01:25:09;;;;;;;8.05;3.28;;;;;;;18.13;90.76;101436.78;5075136;28;20029;-86
2023/07/11 01:27:39;;;;;;;4.97;2.67;;;;;;;18.12;89.19;101434.28;5075127;28;20062;-86
2023/07/11 01:30:10;;;;;;;7.57;3.35;;;;;;;18.02;89.76;101433.03;5074963;28;20056;-87
2023/07/11 01:32:35;;;;;;;5.20;2.97;;;;;;;18.03;93.26;101433.88;5075022;28;20032;-86
2023/07/11 01:35:01;;;;;;;7.63;3.57;;;;;;;18.01;94.13;101425.91;5074741;28;20078;-86
2023/07/11 01:37:27;;;;;;;8.20;3.38;;;;;;;17.97;92.47;101421.97;5074831;28;20036;-86
2023/07/11 01:39:52;;;;;;;6.03;3.20;;;;;;;17.97;95.85;101413.75;5057332;28;20059;-86
2023/07/11 01:42:18;;;;;;;4.40;2.80;;;;;;;17.94;95.07;101418.88;5074054;28;20040;-86
2023/07/11 01:44:44;;;;;;;5.32;3.35;;;;;;;17.88;93.51;101407.00;5058220;28;20051;-86
2023/07/11 01:47:10;;;;;;;6.70;2.97;;;;;;;17.84;91.77;101403.91;5074557;28;20025;-87
2023/07/11 01:49:35;;;;;;;6.72;3.40;;;;;;;17.84;91.85;101408.56;5074591;28;20174;-86
2023/07/11 01:52:23;;;;;;;5.20;3.30;;;;;;;17.80;91.13;101412.91;5041291;28;20038;-86
2023/07/11 01:54:50;;;;;;;7.47;3.63;;;;;;;17.75;92.81;101399.94;5074770;28;20016;-86
2023/07/11 01:57:19;;;;;;;4.60;2.97;;;;;;;17.74;91.61;101397.44;5074901;28;20044;-86
2023/07/11 01:59:45;;;;;;;7.20;3.40;;;;;;;17.70;91.64;101397.09;5074455;28;20043;-86
2023/07/11 02:02:11;;;;;;;6.57;3.20;;;;;;;17.64;91.42;101389.84;5074449;28;20029;-87
2023/07/11 02:04:37;;;;;;;5.15;3.40;;;;;;;17.64;92.80;101387.97;5074163;28;20116;-86
2023/07/11 02:07:07;;;;;;;7.00;3.17;;;;;;;17.59;92.93;101390.59;5074034;28;20043;-86
2023/07/11 02:09:33;;;;;;;5.90;3.50;;;;;;;17.56;92.56;101385.63;5074127;28;20476;-86
2023/07/11 02:11:58;;;;;;;7.03;3.60;;;;;;;17.48;91.86;101383.28;5073412;28;20144;-86
2023/07/11 02:14:24;;;;;;;6.73;3.57;;;;;;;17.46;92.21;101382.72;5074336;28;20545;-86
2023/07/11 02:16:51;;;;;;;7.97;3.78;;;;;;;17.41;91.85;101372.47;5074049;28;20039;-86
2023/07/11 02:19:19;;;;;;;8.27;3.55;;;;;;;17.39;93.13;101369.16;5073926;28;20063;-86
2023/07/11 02:21:45;;;;;;;6.50;3.65;;;;;;;17.38;92.31;101367.50;5057260;28;20082;-87
2023/07/11 02:24:13;;;;;;;9.77;3.90;;;;;;;17.33;93.09;101367.41;5074099;28;20456;-86
2023/07/11 02:26:39;;;;;;;8.32;3.30;;;;;;;17.30;92.87;101360.53;5075182;28;20032;-86
2023/07/11 02:29:05;;;;;;;7.83;3.63;;;;;;;17.25;92.49;101359.59;5073997;28;20036;-87
2023/07/11 02:31:35;;;;;;;6.93;3.42;;;;;;;17.26;93.60;101350.28;5073986;28;20052;-87
2023/07/11 02:34:01;;;;;;;5.55;3.50;;;;;;;17.27;94.62;101357.44;5073602;28;20028;-86
2023/07/11 02:36:28;;;;;;;10.95;3.95;;;;;;;17.25;93.61;101349.44;5073915;28;20036;-86
2023/07/11 02:38:53;;;;;;;5.57;3.70;;;;;;;17.22;93.66;101341.72;5056911;28;20043;-86
2023/07/11 02:41:19;;;;;;;9.80;3.83;;;;;;;17.21;94.18;101348.28;5073236;28;20029;-86
2023/07/11 02:43:48;;;;;;;6.77;3.90;;;;;;;17.18;94.69;101335.06;5074005;28;20052;-86
2023/07/11 02:46:14;;;;;;;9.43;4.18;;;;;;;17.14;94.37;101337.47;5056849;28;20040;-86
2023/07/11 02:48:41;;;;;;;8.05;3.80;;;;;;;17.11;94.66;101329.75;5073246;28;20024;-86
2023/07/11 02:51:06;;;;;;;8.05;3.70;;;;;;;17.09;94.80;101326.41;5072496;28;20056;-86
2023/07/11 02:53:32;;;;;;;8.63;3.43;;;;;;;17.09;94.43;101328.34;5073237;28;20070;-86
2023/07/11 02:55:58;;;;;;;6.27;3.50;;;;;;;17.08;95.19;101327.50;5056709;28;20036;-86
2023/07/11 02:58:24;;;;;;;5.53;3.72;;;;;;;17.09;95.51;101323.66;5072978;28;20031;-86
2023/07/11 03:00:58;;;;;;;7.63;3.72;;;;;;;17.05;95.05;101317.03;5073098;28;20113;-86
2023/07/11 03:03:23;;;;;;;7.97;3.70;;;;;;;17.03;94.93;101312.88;5073054;28;20063;-87
2023/07/11 03:05:50;;;;;;;7.32;3.70;;;;;;;16.98;95.09;101314.44;5056617;28;20381;-87
2023/07/11 03:08:16;;;;;;;8.73;4.20;;;;;;;16.94;95.07;101310.53;5073199;28;20064;-86
2023/07/11 03:10:42;;;;;;;9.85;3.90;;;;;;;16.94;95.86;101306.97;5073529;28;20067;-87
2023/07/11 03:13:08;;;;;;;8.40;4.07;;;;;;;16.91;96.05;101296.50;5072576;28;20489;-86
2023/07/11 03:15:34;;;;;;;6.10;3.53;;;;;;;16.92;96.63;101300.88;5072837;28;20043;-86
2023/07/11 03:18:00;;;;;;;8.68;3.78;;;;;;;16.88;96.21;101292.34;5074156;28;20056;-86
2023/07/11 03:20:26;;;;;;;6.47;3.70;;;;;;;16.89;97.27;101299.50;5073067;28;20071;-86
2023/07/11 03:22:51;;;;;;;7.68;3.95;;;;;;;16.87;96.55;101293.41;5074166;28;20028;-86
2023/07/11 03:25:17;;;;;;;5.53;3.57;;;;;;;16.86;97.04;101294.47;5056243;28;20119;-86
2023/07/11 03:27:42;;;;;;;12.77;3.87;;;;;;;16.86;96.96;101297.22;5073077;28;20025;-86
2023/07/11 03:30:08;;;;;;;9.75;3.90;;;;;;;16.83;97.49;101289.50;5055777;28;20090;-86
2023/07/11 03:32:33;;;;;;;7.70;4.00;;;;;;;16.81;97.81;101286.97;5072361;28;20082;-86
2023/07/11 03:34:59;;;;;;;8.70;3.83;;;;;;;16.84;98.02;101280.16;5072877;28;20031;-87
2023/07/11 03:37:25;;;;;;;7.10;4.05;;;;;;;16.82;97.61;101279.59;5072516;28;20480;-86
2023/07/11 03:39:50;;;;;;;8.83;4.20;;;;;;;16.83;97.68;101284.81;5072479;28;20025;-86
2023/07/11 03:42:19;;;;;;;6.45;3.80;;;;;;;16.81;97.51;101286.16;5073340;28;20056;-86
2023/07/11 03:44:44;;;;;;;5.23;4.00;;;;;;;16.79;97.94;101289.13;5072564;28;20024;-86
2023/07/11 03:47:10;;;;;;;8.38;4.22;;;;;;;16.81;98.12;101283.41;5072296;28;20031;-86
2023/07/11 03:49:36;;;;;;;5.95;3.92;;;;;;;16.82;97.65;101276.84;5072698;28;20032;-86
2023/07/11 03:52:04;;;;;;;7.37;3.80;;;;;;;16.86;97.34;101280.78;5039037;28;20033;-86
2023/07/11 03:54:29;;;;;;;7.00;3.60;;;;;;;16.85;96.60;101281.84;5056167;28;20082;-86
2023/07/11 03:56:55;;;;;;;7.60;3.70;;;;;;;16.88;96.54;101284.13;5072423;28;20494;-86
2023/07/11 03:59:20;;;;;;;7.03;3.70;;;;;;;16.91;96.57;101280.88;5072287;28;20024;-86
2023/07/11 04:01:47;;;;;;;4.47;3.60;;;;;;;16.95;95.47;101284.78;5038625;28;20028;-86
2023/07/11 04:04:17;;;;;;;8.27;3.67;;;;;;;16.97;95.74;101277.13;5055458;28;20511;-86
2023/07/11 04:06:43;;;;;;;5.70;3.42;;;;;;;17.00;95.28;101271.16;5072063;28;20024;-86
2023/07/11 04:09:08;;;;;;;8.20;3.93;;;;;;;17.04;95.05;101274.25;5072055;28;20028;-86
2023/07/11 04:11:38;;;;;;;8.60;3.40;;;;;;;17.11;94.70;101272.19;5071438;28;20139;-86
2023/07/11 04:14:06;;;;;;;4.83;3.30;;;;;;;17.16;94.05;101266.78;5072023;28;20438;-86
2023/07/11 04:16:31;;;;;;;8.65;3.55;;;;;;;17.20;93.59;101258.91;5073767;28;20040;-86
2023/07/11 04:18:57;;;;;;;4.17;3.17;;;;;;;17.26;93.16;101263.38;5055057;28;20399;-86
2023/07/11 04:21:23;;;;;;;6.53;3.63;;;;;;;17.31;93.14;101260.69;5072178;28;20455;-86
2023/07/11 04:23:50;;;;;;;5.37;2.97;;;;;;;17.39;92.58;101255.88;5055357;28;20048;-86
2023/07/11 04:26:18;;;;;;;8.23;3.20;;;;;;;17.43;91.54;101251.53;5038783;28;20047;-86
2023/07/11 04:28:43;;;;;;;7.47;3.50;;;;;;;17.49;91.52;101256.88;5055374;28;20070;-86
2023/07/11 04:31:09;;;;;;;5.87;3.30;;;;;;;17.54;91.10;101247.88;5071564;28;20056;-86
2023/07/11 04:33:34;;;;;;;8.13;3.47;;;;;;;17.61;90.97;101253.16;5055270;28;20035;-86
2023/07/11 04:36:14;;;;;;;5.13;3.00;;;;;;;17.66;90.58;101248.59;5071891;28;20025;-86
2023/07/11 04:38:39;;;;;;;5.70;2.97;;;;;;;17.72;89.43;101244.00;5072067;28;20035;-86
2023/07/11 04:41:06;;;;;;;3.70;2.53;;;;;;;17.77;88.54;101246.00;5054786;28;20435;-87
2023/07/11 04:43:35;;;;;;;8.43;3.03;;;;;;;17.84;88.93;101250.19;5072926;28;20480;-86
2023/07/11 04:46:03;;;;;;;7.82;3.13;;;;;;;17.88;87.76;101237.63;5072017;28;20036;-86
2023/07/11 04:48:28;;;;;;;10.10;3.67;;;;;;;17.93;87.51;101239.63;5071635;28;20060;-86
2023/07/11 04:51:04;;;;;;;5.87;3.17;;;;;;;18.00;87.67;101240.28;5071525;28;20048;-86
2023/07/11 04:53:31;;;;;;;6.05;3.20;;;;;;;18.05;87.07;101242.25;5071874;28;20036;-86
2023/07/11 04:56:02;;;;;;;7.70;3.20;;;;;;;18.09;86.31;101229.69;5071655;28;20115;-86
2023/07/11 04:58:29;;;;;;;5.32;3.17;;;;;;;18.16;85.56;101229.47;5071806;28;20442;-86
2023/07/11 05:01:01;;;;;;;5.68;2.83;;;;;;;18.24;84.94;101231.78;5072281;28;20063;-86
2023/07/11 05:03:27;;;;;;;5.83;2.73;;;;;;;18.28;84.95;101230.19;5071685;28;20024;-86
2023/07/11 05:05:53;;;;;;;5.15;2.40;;;;;;;18.33;84.17;101224.72;5054946;28;20089;-86
2023/07/11 05:08:19;;;;;;;4.57;2.72;;;;;;;18.40;83.29;101230.84;5071316;28;20043;-86
2023/07/11 05:10:51;;;;;;;6.40;3.07;;;;;;;18.47;83.05;101221.56;5072078;28;20032;-86
2023/07/11 05:13:16;;;;;;;6.20;2.50;;;;;;;18.51;82.60;101223.56;5073816;28;20133;-86
2023/07/11 05:15:42;;;;;;;4.93;2.67;;;;;;;18.59;82.53;101220.31;5075680;28;20071;-86
2023/07/11 05:18:10;;;;;;;7.20;2.87;;;;;;;18.64;81.95;101214.03;5074921;28;20063;-86
2023/07/11 05:20:35;;;;;;;5.53;2.83;;;;;;;18.71;82.18;101219.34;5078190;28;20028;-86
2023/07/11 05:23:01;;;;;;;8.80;2.70;;;;;;;18.76;80.99;101209.22;5058519;28;20388;-86
2023/07/11 05:25:26;;;;;;;5.60;2.47;;;;;;;18.84;80.73;101212.56;5076243;28;20056;-86
2023/07/11 05:27:52;;;;;;;6.38;2.70;;;;;;;18.90;80.37;101217.88;5058066;28;20028;-86
2023/07/11 05:35:41;;;;;;;;;;;;;;;;;;;;;
2023/07/11 05:38:40;;;;;;;9.75;2.80;;;;;;;19.27;79.51;101192.28;5032873;28;20061;-96
2023/07/11 05:41:36;;;;;;;6.97;2.70;;;;;;;19.34;79.08;101200.31;5005799;28;20054;-96
2023/07/11 05:44:04;;;;;;;8.55;2.72;;;;;;;19.39;77.88;101189.34;5321710;23;20105;-96
2023/07/11 05:47:06;;;;;;;;;;;;;;;;;;;;;
2023/07/11 05:49:53;;;;;;;5.37;2.40;;;;;;;19.52;76.97;101196.28;5024159;28;20042;-96
2023/07/11 05:52:18;;;;;;;5.75;2.67;;;;;;;19.59;76.76;101187.78;5006038;28;20096;-95
2023/07/11 05:54:54;;;;;;;7.78;2.55;;;;;;;19.64;76.80;101185.06;5005946;28;20046;-96
2023/07/11 05:57:30;;;;;;;;;;;;;;;;;;;;;
2023/07/11 05:59:58;;;;;;;10.52;2.70;;;;;;;19.78;75.27;101180.75;5025003;28;20437;-96
2023/07/11 06:02:31;;;;;;;6.00;2.40;;;;;;;19.83;75.64;101177.19;5020164;28;20030;-96
2023/07/11 06:05:01;;;;;;;4.15;2.40;;;;;;;19.89;75.62;101178.88;5012766;28;20029;-96
2023/07/11 06:07:44;;;;;;;6.50;2.20;;;;;;;19.96;75.35;101184.09;5014595;28;20403;-95
2023/07/11 06:10:09;;;;;;;6.07;2.23;;;;;;;20.03;75.93;101176.41;4999710;28;20034;-96
2023/07/11 06:12:39;;;;;;;6.55;2.22;;;;;;;20.08;74.26;101173.69;5017870;28;20041;-96
2023/07/11 06:15:08;;;;;;;4.05;2.53;;;;;;;20.16;75.37;101169.56;5019594;28;20022;-96
2023/07/11 06:17:44;;;;;;;5.50;2.10;;;;;;;20.22;74.40;101170.41;4996451;28;20406;-96
2023/07/11 06:20:13;;;;;;;9.63;2.83;;;;;;;20.27;74.14;101167.66;5036423;28;20033;-96
2023/07/11 06:25:33;;;;;;;4.93;2.20;;;;;;;20.39;74.28;101173.75;5134949;23;20067;-96
2023/07/11 06:28:17;;;;;;;7.20;2.60;;;;;;;20.47;73.52;101172.38;4987923;28;20042;-93
2023/07/11 06:30:43;;;;;;;6.38;2.30;;;;;;;20.55;73.67;101168.25;4949209;28;20157;-95
2023/07/11 06:33:14;;;;;;;5.50;2.40;;;;;;;20.59;73.64;101170.16;4963052;28;20031;-96
2023/07/11 06:35:48;;;;;;;6.82;2.33;;;;;;;20.67;72.59;101169.66;4965293;28;20035;-96
2023/07/11 06:38:13;;;;;;;7.22;2.50;;;;;;;20.79;71.77;101166.63;4963411;28;20478;-95
2023/07/11 06:40:39;;;;;;;9.00;2.43;;;;;;;20.91;71.42;101168.28;4962543;28;20026;-94
2023/07/11 06:43:07;;;;;;;8.15;2.92;;;;;;;20.97;71.10;101158.91;4962611;28;20035;-96
2023/07/11 06:45:33;;;;;;;10.63;2.73;;;;;;;21.05;70.91;101166.59;4946330;28;20045;-96
2023/07/11 06:47:58;;;;;;;9.18;2.00;;;;;;;21.11;70.30;101162.75;4964041;28;20380;-96
2023/07/11 06:50:37;;;;;;;6.67;2.60;;;;;;;21.16;70.57;101159.13;4961565;28;20085;-96
2023/07/11 06:53:06;;;;;;;9.43;2.10;;;;;;;21.22;69.04;101158.03;4981289;28;20031;-96
2023/07/11 06:55:34;;;;;;;8.65;2.63;;;;;;;21.30;67.92;101160.19;4978933;28;20039;-96
2023/07/11 06:58:05;;;;;;;12.63;2.70;;;;;;;21.34;68.71;101153.00;4932453;28;20039;-96
2023/07/11 07:00:35;;;;;;;6.88;2.30;;;;;;;21.38;69.45;101151.34;4949501;28;20035;-95
2023/07/11 07:03:01;;;;;;;6.03;2.00;;;;;;;21.46;67.61;101155.44;4945995;28;20034;-96
2023/07/11 07:05:29;;;;;;;8.57;2.10;;;;;;;21.51;67.18;101147.19;4961098;28;20023;-96
2023/07/11 07:07:55;;;;;;;5.30;2.05;;;;;;;21.58;67.31;101146.88;4980886;28;20070;-96
2023/07/11 07:10:20;;;;;;;9.20;1.90;;;;;;;21.64;66.14;101159.59;4961921;28;20502;-96
2023/07/11 07:12:46;;;;;;;5.60;2.10;;;;;;;21.71;64.17;101153.72;4975562;28;20039;-96
2023/07/11 07:15:13;;;;;;;8.73;2.30;;;;;;;21.77;64.32;101158.13;4977309;28;20392;-96
2023/07/11 07:17:38;;;;;;;7.93;2.30;;;;;;;21.83;63.08;101156.97;4961120;28;20034;-96
2023/07/11 07:20:10;;;;;;;5.13;2.03;;;;;;;21.91;62.64;101155.59;4960184;28;20034;-94
2023/07/11 07:22:40;;;;;;;8.73;2.47;;;;;;;21.98;62.31;101156.09;4960571;28;20049;-96
2023/07/11 07:25:06;;;;;;;7.70;2.10;;;;;;;22.05;62.92;101161.28;4961174;28;20054;-96
2023/07/11 07:27:41;;;;;;;10.52;2.13;;;;;;;22.15;62.84;101152.13;4977657;28;20031;-96
2023/07/11 07:30:08;;;;;;;2.97;1.77;;;;;;;22.24;62.71;101151.22;4961887;28;20038;-96
2023/07/11 07:32:35;;;;;;;4.70;1.98;;;;;;;22.34;61.06;101144.03;4964916;28;20035;-96
2023/07/11 07:35:03;;;;;;;10.23;2.20;;;;;;;22.41;61.80;101137.03;4961192;28;20027;-96
2023/07/11 07:37:31;;;;;;;6.50;2.25;;;;;;;22.50;62.32;101142.78;4959911;28;20034;-96
2023/07/11 07:40:04;;;;;;;8.15;2.55;;;;;;;22.58;61.77;101142.16;4960774;28;20065;-95
2023/07/11 07:42:32;;;;;;;6.27;2.33;;;;;;;22.64;60.85;101137.41;4959768;28;20046;-96
2023/07/11 07:44:58;;;;;;;10.98;2.00;;;;;;;22.74;58.92;101134.53;4975704;28;20034;-96
2023/07/11 07:47:25;;;;;;;5.97;1.90;;;;;;;22.83;57.90;101131.16;4945312;28;20038;-96
2023/07/11 07:50:01;;;;;;;4.47;1.70;;;;;;;22.89;58.64;101127.22;4945168;28;20399;-96
2023/07/11 07:52:30;;;;;;;7.53;2.00;;;;;;;23.03;58.63;101130.13;4960981;28;20034;-96
2023/07/11 07:54:56;;;;;;;5.07;1.63;;;;;;;23.12;58.00;101122.88;4963198;28;20526;-96
2023/07/11 07:57:24;;;;;;;7.43;2.10;;;;;;;23.22;57.02;101113.63;4959626;28;20030;-96
2023/07/11 08:00:02;;;;;;;7.20;2.28;;;;;;;23.35;58.16;101117.63;4980360;28;20034;-96
2023/07/11 08:02:42;;;;;;;9.18;2.15;;;;;;;23.53;58.31;101122.38;4977300;28;20054;-96
2023/07/11 08:05:11;;;;;;;6.03;2.08;;;;;;;23.67;55.24;101122.47;4949781;28;20126;-96
2023/07/11 08:07:37;;;;;;;8.43;2.33;;;;;;;23.71;55.81;101119.91;4966684;28;20042;-96
2023/07/11 08:10:05;;;;;;;8.35;2.65;;;;;;;23.70;54.19;101112.75;4979165;28;20035;-96
2023/07/11 08:12:30;;;;;;;10.82;2.08;;;;;;;23.70;53.78;101115.53;4963622;28;20089;-96
2023/07/11 08:14:58;;;;;;;8.43;1.73;;;;;;;23.75;53.83;101124.56;4978538;28;20471;-96
2023/07/11 08:17:26;;;;;;;4.88;1.90;;;;;;;23.88;54.00;101117.50;4959966;28;20041;-96
2023/07/11 08:19:52;;;;;;;7.93;2.10;;;;;;;23.97;54.24;101110.16;4976300;28;20059;-95
2023/07/11 08:22:17;;;;;;;4.87;1.77;;;;;;;24.08;54.58;101115.53;4959928;28;20479;-96
2023/07/11 08:24:43;;;;;;;10.60;2.30;;;;;;;24.17;53.61;101113.75;4960531;28;20049;-96
2023/07/11 08:27:10;;;;;;;3.73;1.73;;;;;;;24.24;53.06;101107.81;4961851;28;20130;-96
2023/07/11 08:29:46;;;;;;;9.38;1.90;;;;;;;24.26;53.03;101113.91;4978220;28;20055;-96
2023/07/11 08:32:12;;;;;;;8.38;2.38;;;;;;;24.40;54.06;101105.63;4952466;28;20125;-96
2023/07/11 08:34:39;;;;;;;5.15;1.70;;;;;;;24.53;53.56;101107.63;4961995;28;20047;-94
2023/07/11 08:37:04;;;;;;;6.70;2.15;;;;;;;24.62;53.31;101103.03;4959161;28;20038;-96
2023/07/11 08:39:34;;;;;;;5.60;2.00;;;;;;;24.69;52.52;101086.84;4977621;28;20023;-95
2023/07/11 08:42:12;;;;;;;5.70;1.80;;;;;;;24.80;52.68;101094.97;4980382;28;20034;-96
2023/07/11 08:44:46;;;;;;;5.57;1.90;;;;;;;25.02;51.57;101091.50;4983856;28;20529;-95
2023/07/11 08:47:28;;;;;;;6.63;1.88;;;;;;;25.22;51.62;101098.63;4984549;28;20030;-95
2023/07/11 08:50:15;;;;;;;7.20;2.23;;;;;;;25.30;51.47;101102.63;4985772;28;20035;-96
2023/07/11 08:53:00;;;;;;;6.53;2.00;;;;;;;25.32;50.45;101094.81;4969284;28;20027;-96
2023/07/11 08:55:31;;;;;;;6.95;2.10;;;;;;;25.45;48.92;101087.63;4984422;28;20035;-94
2023/07/11 08:58:26;;;;;;;5.40;1.92;;;;;;;25.59;49.28;101096.75;4984202;28;20038;-96
2023/07/11 09:00:54;;;;;;;6.00;2.03;;;;;;;25.62;49.65;101082.25;4967581;28;20029;-96
2023/07/11 09:06:37;;;;;;;7.65;2.00;;;;;;;25.74;49.72;101087.25;4984595;28;20039;-96
2023/07/11 09:09:04;;;;;;;7.47;2.30;;;;;;;25.82;49.30;101092.09;4986204;28;20069;-96
2023/07/11 09:11:58;;;;;;;8.30;2.40;;;;;;;25.83;49.94;101087.34;4975798;28;20027;-96
2023/07/11 09:14:41;;;;;;;9.25;2.30;;;;;;;25.76;49.76;101086.94;4985906;28;20042;-96
2023/07/11 09:17:20;;;;;;;8.67;2.13;;;;;;;25.75;49.94;101077.78;4982527;28;20048;-96
2023/07/11 09:20:28;;;;;;;6.63;2.20;;;;;;;25.91;50.29;101081.03;4984761;28;20034;-96
2023/07/11 09:23:56;;;;;;;5.85;2.30;;;;;;;26.08;48.95;101081.19;4985716;28;20031;-95
2023/07/11 09:26:30;;;;;;;7.18;2.40;;;;;;;26.12;48.60;101083.34;4893010;29;20060;-96
2023/07/11 09:29:07;;;;;;;6.10;2.10;;;;;;;26.13;48.67;101076.66;4891821;29;20055;-96
2023/07/11 09:31:56;;;;;;;8.27;2.33;;;;;;;26.04;48.76;101066.31;4894330;29;20064;-96
2023/07/11 09:34:47;;;;;;;4.65;2.10;;;;;;;26.08;48.83;101064.50;4933640;28;20035;-96
2023/07/11 09:37:48;;;;;;;13.45;2.78;;;;;;;26.12;48.33;101069.44;4982084;28;20094;-95
2023/07/11 09:40:48;;;;;;;7.85;2.60;;;;;;;26.12;48.67;101080.56;4971822;28;20038;-96
2023/07/11 09:43:13;;;;;;;5.22;2.28;;;;;;;26.04;47.63;101077.41;4984851;28;20038;-96
2023/07/11 09:45:55;;;;;;;7.43;2.20;;;;;;;26.06;47.80;101077.09;4985611;28;20037;-96
2023/07/11 09:48:31;;;;;;;6.68;2.50;;;;;;;26.07;48.07;101079.56;4982795;28;20109;-96
2023/07/11 09:51:24;;;;;;;5.40;2.58;;;;;;;26.34;47.55;101063.88;4987473;28;20027;-96
2023/07/11 09:54:04;;;;;;;7.90;2.70;;;;;;;26.58;47.12;101059.94;4983554;28;20066;-96
2023/07/11 09:56:48;;;;;;;6.57;2.60;;;;;;;26.78;46.39;101069.72;4981277;28;20126;-96
2023/07/11 09:59:27;;;;;;;;;;;;;;;;;;;;;
2023/07/11 10:01:59;;;;;;;7.82;2.70;;;;;;;26.75;46.37;101071.19;4984449;28;20125;-96
2023/07/11 10:04:29;;;;;;;8.90;2.47;;;;;;;26.64;46.05;101061.44;4948835;28;20070;-95
2023/07/11 10:07:05;;;;;;;6.37;2.50;;;;;;;26.65;46.49;101068.66;4981586;28;20030;-96
2023/07/11 10:09:42;;;;;;;6.20;2.35;;;;;;;26.70;47.34;101054.63;4980073;28;20039;-96
2023/07/11 10:12:37;;;;;;;6.95;2.40;;;;;;;26.93;46.41;101057.34;4979561;28;20427;-96
2023/07/11 10:15:35;;;;;;;5.88;2.17;;;;;;;27.04;46.52;101055.91;4966368;28;20114;-96
2023/07/11 10:18:01;;;;;;;8.68;2.13;;;;;;;27.15;46.10;101048.09;4966852;28;20062;-96
2023/07/11 10:20:26;;;;;;;10.00;2.90;;;;;;;27.51;45.86;101046.22;4963526;28;20042;-96
2023/07/11 10:23:00;;;;;;;7.77;2.50;;;;;;;27.79;45.71;101052.31;4981645;28;20035;-96
2023/07/11 10:25:30;;;;;;;7.35;2.47;;;;;;;27.73;44.27;101039.69;4978795;28;20057;-96
2023/07/11 10:28:26;;;;;;;13.25;2.92;;;;;;;27.76;44.04;101039.84;4963169;28;20088;-96
2023/07/11 10:30:52;;;;;;;7.45;2.50;;;;;;;27.62;44.55;101036.38;4963719;28;20031;-96
2023/07/11 10:33:33;;;;;;;6.28;2.50;;;;;;;27.86;44.75;101043.44;4978981;28;20026;-96
2023/07/11 10:36:30;;;;;;;7.30;2.90;;;;;;;28.04;43.74;101028.38;4962980;28;20035;-95
2023/07/11 10:39:30;;;;;;;7.68;2.50;;;;;;;27.96;44.75;101024.44;4953133;28;20041;-96
2023/07/11 10:42:34;;;;;;;5.82;2.42;;;;;;;28.14;43.40;101024.41;4980177;28;20034;-96
2023/07/11 10:45:07;;;;;;;7.53;2.80;;;;;;;28.34;42.31;101020.13;4977975;28;20037;-96
2023/07/11 10:47:44;;;;;;;9.32;2.80;;;;;;;28.75;42.65;101015.91;4981676;28;20035;-96
2023/07/11 10:50:27;;;;;;;10.10;2.90;;;;;;;28.93;41.37;101021.41;4982532;28;20066;-96
2023/07/11 10:53:31;;;;;;;6.28;2.90;;;;;;;28.93;41.63;101008.25;4979629;28;20128;-96
2023/07/11 10:56:05;;;;;;;6.05;2.80;;;;;;;29.26;41.06;101013.16;4959937;28;20045;-95
2023/07/11 10:58:37;;;;;;;5.10;2.70;;;;;;;29.29;40.68;101014.47;4981786;28;20039;-96
2023/07/11 11:01:24;;;;;;;5.20;2.72;;;;;;;29.57;40.33;101015.59;4984306;28;20026;-96
2023/07/11 11:04:17;;;;;;;;;;;;;;;;;;;;;
2023/07/11 11:06:59;;;;;;;8.75;2.80;;;;;;;29.86;39.33;101004.69;4983434;28;20091;-96
2023/07/11 11:09:47;;;;;;;5.88;2.40;;;;;;;30.02;37.67;101016.88;4982943;28;20058;-96
2023/07/11 11:16:03;;;;;;;7.15;2.53;;;;;;;30.73;37.28;101000.94;4975507;28;20034;-96
2023/07/11 11:18:41;;;;;;;9.37;3.10;;;;;;;30.63;36.77;100990.19;4981040;28;20058;-96
2023/07/11 11:21:37;;;;;;;8.07;2.90;;;;;;;30.76;36.73;100991.03;4965297;28;20472;-96
2023/07/11 11:25:00;;;;;;;5.38;2.60;;;;;;;31.27;36.51;100980.28;4986532;28;20037;-96
2023/07/11 11:27:32;;;;;;;8.63;2.80;;;;;;;33.07;33.13;100980.66;4971806;28;20476;-96
2023/07/11 11:36:14;;;;;;;;;;;;;;;;;;;;;
2023/07/11 11:39:01;;;;;;;6.68;2.60;;;;;;;37.76;27.45;100956.66;4945727;29;20095;-96
2023/07/11 11:41:41;;;;;;;7.85;3.30;;;;;;;37.94;25.76;100953.88;4946638;28;20062;-96
2023/07/11 11:44:19;;;;;;;10.82;3.25;;;;;;;37.73;26.08;100953.41;4972122;28;20027;-96
2023/07/11 11:46:45;;;;;;;6.47;2.90;;;;;;;37.54;24.42;100965.06;4967937;28;20395;-96
2023/07/11 11:52:17;;;;;;;6.85;3.20;;;;;;;36.77;26.63;100946.06;5052131;23;20034;-96
2023/07/11 11:57:27;;;;;;;7.93;3.35;;;;;;;38.52;24.90;100944.22;5006926;28;20054;-96
2023/07/11 12:00:14;;;;;;;5.63;3.17;;;;;;;39.52;22.73;100942.31;4990475;28;20061;-96
2023/07/11 12:02:48;;;;;;;5.80;3.10;;;;;;;40.14;22.92;100942.78;4987106;28;20084;-96
2023/07/11 12:05:29;;;;;;;5.15;3.38;;;;;;;40.91;22.35;100952.28;4990333;28;20052;-96
2023/07/11 12:08:28;;;;;;;13.43;3.75;;;;;;;41.28;22.10;100927.84;4970932;28;20077;-95
2023/07/11 12:11:09;;;;;;;6.93;3.58;;;;;;;40.44;22.71;100918.56;4986006;28;20406;-95
2023/07/11 12:14:15;;;;;;;5.33;3.40;;;;;;;39.27;23.56;100917.75;5001229;28;20057;-96
2023/07/11 12:16:43;;;;;;;6.57;3.60;;;;;;;39.17;23.91;100929.94;4972046;28;20053;-95
2023/07/11 12:19:30;;;;;;;4.93;3.55;;;;;;;39.84;23.57;100912.97;5000031;28;20118;-95
2023/07/11 12:22:07;;;;;;;5.40;3.63;;;;;;;39.82;23.97;100919.06;4982133;28;20034;-96